KGGP

Logansport/Cass County Airport

Logansport, Indiana, USA
METAR KGGP 161415Z AUTO 21011KT 10SM CLR 01/M03 A2995 RMK AO2
Observed Flight Rules
Dec-16 @ 14:15 UTC (24 minutes ago) Visual Flight Rules
Wind Visibility Clouds
210° at 11 knots 10 miles
  • Clear skies
Temperatures Readings
Current 1°C / 34°F
Dewpoint -3°C / 27°F
Humidity 75%
Altimeter 29.95" Hg
Pressure 1014 hPa
Elevation 225
METAR KGGP 161415Z AUTO 21011KT 10SM CLR 01/M03 A2995 RMK AO2
Observed Flight Rules
Dec-16 @ 14:15 UTC
(24 minutes ago)
VFR
Wind Visibility
210° at 11 knots 10 miles
Clouds
  • Clear skies
Temperature Dewpoint
1°C / 34°F -3°C / 27°F
Humidity Altimeter Pressure
75% 29.95" Hg 1014 hPa